createdAt,value
2022-10-14T00:14:23.305Z,0
2022-10-14T00:29:19.431Z,0.01
2022-10-14T00:44:15.584Z,0
2022-10-14T00:59:12.242Z,0
2022-10-14T01:14:07.975Z,0
2022-10-14T01:29:03.831Z,0
2022-10-14T01:44:00.154Z,0.02
2022-10-14T01:58:56.363Z,0.01
2022-10-14T02:13:53.017Z,0
2022-10-14T02:28:48.971Z,0
2022-10-14T02:43:45.035Z,0
2022-10-14T02:58:40.809Z,0
2022-10-14T03:13:37.204Z,0
2022-10-14T03:28:33.488Z,0
2022-10-14T03:43:29.477Z,0.01
2022-10-14T03:58:25.787Z,0
2022-10-14T04:13:21.549Z,0.01
2022-10-14T04:28:17.944Z,0.02
2022-10-14T04:43:14.231Z,0
2022-10-14T04:58:10.405Z,0
2022-10-14T05:13:06.834Z,0.01
2022-10-14T05:28:03.456Z,0.02
2022-10-14T05:42:59.292Z,0.02
2022-10-14T05:57:55.174Z,0.02
2022-10-14T06:12:51.827Z,0.04
2022-10-14T06:27:48.047Z,0.05
2022-10-14T06:42:44.414Z,0.06
2022-10-14T06:57:40.639Z,0.06
2022-10-14T07:12:37.394Z,0.05
2022-10-14T07:27:33.718Z,0.06
2022-10-14T07:42:30.538Z,0.05
2022-10-14T07:57:26.776Z,0.1
2022-10-14T08:12:24.255Z,0.1
2022-10-14T08:27:19.902Z,0.1
2022-10-14T08:42:16.673Z,0.11
2022-10-14T08:57:13.130Z,0.1
2022-10-14T09:12:09.320Z,0.15
2022-10-14T09:27:05.750Z,0.15
2022-10-14T09:42:02.149Z,0.11
2022-10-14T09:56:58.385Z,0.1
2022-10-14T10:11:55.111Z,0.12
2022-10-14T10:26:51.887Z,0.1
2022-10-14T10:41:48.473Z,0.12
2022-10-14T11:11:41.297Z,0.12
2022-10-14T11:26:37.706Z,0.1
2022-10-14T11:41:33.408Z,0.11
2022-10-14T11:56:29.289Z,0.1
2022-10-14T12:11:25.176Z,0.1
2022-10-14T12:26:21.981Z,0.08
2022-10-14T12:41:18.783Z,0.06
2022-10-14T12:56:14.912Z,0.07
2022-10-14T13:11:10.843Z,0.1
2022-10-14T13:26:07.789Z,0.11
2022-10-14T13:41:04.445Z,0.11
2022-10-14T13:56:00.549Z,0.12
2022-10-14T14:11:15.409Z,0.12
2022-10-14T14:26:17.614Z,0.1
2022-10-14T14:40:50.012Z,0.08
2022-10-14T14:55:46.080Z,0.08
2022-10-14T15:10:42.339Z,0.07
2022-10-14T15:25:38.365Z,0.07
2022-10-14T15:40:34.674Z,0
2022-10-14T15:55:30.747Z,0.04
2022-10-14T16:10:28.187Z,0.05
2022-10-14T16:25:23.187Z,0.03
2022-10-14T16:40:19.115Z,0.02
2022-10-14T16:55:15.334Z,0.02
2022-10-14T17:10:11.466Z,0.02
2022-10-14T17:25:07.774Z,0.01
2022-10-14T17:40:04.241Z,0.01
2022-10-14T17:55:01.398Z,0
2022-10-14T18:09:56.954Z,0
2022-10-14T18:24:52.827Z,0
2022-10-14T18:39:48.883Z,0
2022-10-14T18:54:45.060Z,0
2022-10-14T19:09:41.376Z,0
2022-10-14T19:24:37.774Z,0.01
2022-10-14T19:39:33.777Z,0
2022-10-14T19:50:02.807Z,0
2022-10-14T20:04:59.164Z,0.02
2022-10-14T20:19:55.209Z,0
2022-10-14T20:34:51.107Z,0
2022-10-14T20:49:47.261Z,0.01
2022-10-14T21:04:43.445Z,0
2022-10-14T21:19:39.575Z,0
2022-10-14T21:34:35.465Z,0
2022-10-14T21:49:31.642Z,0.01
2022-10-14T22:04:28.087Z,0.01
2022-10-14T22:19:23.873Z,0
2022-10-14T22:34:20.103Z,0
2022-10-14T22:49:16.431Z,0
2022-10-14T23:04:13.283Z,0.01
2022-10-14T23:19:09.472Z,0
2022-10-14T23:34:05.527Z,0
2022-10-14T23:49:07.906Z,0
